sensor_id;sensor_type;location;lat;lon;timestamp;temperature;humidity
10278;DHT22;5184;51.376;7.148;2022-10-13T00:01:40;9.40;99.90
10278;DHT22;5184;51.376;7.148;2022-10-13T00:04:07;9.40;99.90
10278;DHT22;5184;51.376;7.148;2022-10-13T00:06:34;9.40;99.90
10278;DHT22;5184;51.376;7.148;2022-10-13T00:09:01;9.40;99.90
10278;DHT22;5184;51.376;7.148;2022-10-13T00:11:28;9.50;99.90
10278;DHT22;5184;51.376;7.148;2022-10-13T00:13:56;9.50;99.90
10278;DHT22;5184;51.376;7.148;2022-10-13T00:16:22;9.60;99.90
10278;DHT22;5184;51.376;7.148;2022-10-13T00:18:50;9.60;99.90
10278;DHT22;5184;51.376;7.148;2022-10-13T00:21:18;9.60;99.90
10278;DHT22;5184;51.376;7.148;2022-10-13T00:23:44;9.60;99.90
10278;DHT22;5184;51.376;7.148;2022-10-13T00:26:14;9.60;99.90
10278;DHT22;5184;51.376;7.148;2022-10-13T00:28:37;9.60;99.90
10278;DHT22;5184;51.376;7.148;2022-10-13T00:31:13;9.60;99.90
10278;DHT22;5184;51.376;7.148;2022-10-13T00:33:30;9.60;99.90
10278;DHT22;5184;51.376;7.148;2022-10-13T00:35:57;9.60;99.90
10278;DHT22;5184;51.376;7.148;2022-10-13T00:38:23;9.70;99.90
10278;DHT22;5184;51.376;7.148;2022-10-13T00:40:52;9.60;99.90
10278;DHT22;5184;51.376;7.148;2022-10-13T00:43:47;9.70;99.90
10278;DHT22;5184;51.376;7.148;2022-10-13T00:45:53;9.70;99.90
10278;DHT22;5184;51.376;7.148;2022-10-13T00:48:22;9.70;99.90
10278;DHT22;5184;51.376;7.148;2022-10-13T00:50:48;9.60;99.90
10278;DHT22;5184;51.376;7.148;2022-10-13T00:53:15;9.60;99.90
10278;DHT22;5184;51.376;7.148;2022-10-13T00:55:41;9.60;99.90
10278;DHT22;5184;51.376;7.148;2022-10-13T00:58:09;9.60;99.90
10278;DHT22;5184;51.376;7.148;2022-10-13T01:00:35;9.60;99.90
10278;DHT22;5184;51.376;7.148;2022-10-13T01:03:03;9.60;99.90
10278;DHT22;5184;51.376;7.148;2022-10-13T01:05:29;9.60;99.90
10278;DHT22;5184;51.376;7.148;2022-10-13T01:07:57;9.60;99.90
10278;DHT22;5184;51.376;7.148;2022-10-13T01:10:51;9.60;99.90
10278;DHT22;5184;51.376;7.148;2022-10-13T01:13:18;9.60;99.90
10278;DHT22;5184;51.376;7.148;2022-10-13T01:15:50;9.60;99.90
10278;DHT22;5184;51.376;7.148;2022-10-13T01:18:21;9.60;99.90
10278;DHT22;5184;51.376;7.148;2022-10-13T01:20:50;9.70;99.90
10278;DHT22;5184;51.376;7.148;2022-10-13T01:23:24;9.70;99.90
10278;DHT22;5184;51.376;7.148;2022-10-13T01:26:01;9.60;99.90
10278;DHT22;5184;51.376;7.148;2022-10-13T01:29:03;9.70;99.90
10278;DHT22;5184;51.376;7.148;2022-10-13T01:31:19;9.60;99.90
10278;DHT22;5184;51.376;7.148;2022-10-13T01:33:56;9.60;99.90
10278;DHT22;5184;51.376;7.148;2022-10-13T01:36:30;9.60;99.90
10278;DHT22;5184;51.376;7.148;2022-10-13T01:38:54;9.60;99.90
10278;DHT22;5184;51.376;7.148;2022-10-13T01:41:38;9.60;99.90
10278;DHT22;5184;51.376;7.148;2022-10-13T01:44:09;9.60;99.90
10278;DHT22;5184;51.376;7.148;2022-10-13T01:46:35;9.70;99.90
10278;DHT22;5184;51.376;7.148;2022-10-13T01:49:03;9.70;99.90
10278;DHT22;5184;51.376;7.148;2022-10-13T01:51:28;9.70;99.90
10278;DHT22;5184;51.376;7.148;2022-10-13T01:53:55;9.80;99.90
10278;DHT22;5184;51.376;7.148;2022-10-13T01:56:22;9.80;99.90
10278;DHT22;5184;51.376;7.148;2022-10-13T01:58:49;9.80;99.90
10278;DHT22;5184;51.376;7.148;2022-10-13T02:01:28;9.80;99.90
10278;DHT22;5184;51.376;7.148;2022-10-13T02:03:57;9.80;99.90
10278;DHT22;5184;51.376;7.148;2022-10-13T02:06:29;9.80;99.90
10278;DHT22;5184;51.376;7.148;2022-10-13T02:09:03;9.80;99.90
10278;DHT22;5184;51.376;7.148;2022-10-13T02:11:29;9.90;99.90
10278;DHT22;5184;51.376;7.148;2022-10-13T02:14:03;9.80;99.90
10278;DHT22;5184;51.376;7.148;2022-10-13T02:16:30;9.90;99.90
10278;DHT22;5184;51.376;7.148;2022-10-13T02:18:55;9.90;99.90
10278;DHT22;5184;51.376;7.148;2022-10-13T02:21:23;10.00;99.90
10278;DHT22;5184;51.376;7.148;2022-10-13T02:23:50;10.00;99.90
10278;DHT22;5184;51.376;7.148;2022-10-13T02:26:16;10.00;99.90
10278;DHT22;5184;51.376;7.148;2022-10-13T02:28:43;10.10;99.90
10278;DHT22;5184;51.376;7.148;2022-10-13T02:31:10;10.10;99.90
10278;DHT22;5184;51.376;7.148;2022-10-13T02:33:37;10.10;99.90
10278;DHT22;5184;51.376;7.148;2022-10-13T02:36:04;10.10;99.90
10278;DHT22;5184;51.376;7.148;2022-10-13T02:38:31;10.10;99.90
10278;DHT22;5184;51.376;7.148;2022-10-13T02:40:59;10.10;99.90
10278;DHT22;5184;51.376;7.148;2022-10-13T02:43:24;10.20;99.90
10278;DHT22;5184;51.376;7.148;2022-10-13T02:45:51;10.20;99.90
10278;DHT22;5184;51.376;7.148;2022-10-13T02:48:18;10.20;99.90
10278;DHT22;5184;51.376;7.148;2022-10-13T02:50:45;10.20;99.90
10278;DHT22;5184;51.376;7.148;2022-10-13T02:53:11;10.20;99.90
10278;DHT22;5184;51.376;7.148;2022-10-13T02:55:39;10.20;99.90
10278;DHT22;5184;51.376;7.148;2022-10-13T02:58:06;10.30;99.90
10278;DHT22;5184;51.376;7.148;2022-10-13T03:00:33;10.20;99.90
10278;DHT22;5184;51.376;7.148;2022-10-13T03:02:59;10.30;99.90
10278;DHT22;5184;51.376;7.148;2022-10-13T03:05:26;10.30;99.90
10278;DHT22;5184;51.376;7.148;2022-10-13T03:07:53;10.30;99.90
10278;DHT22;5184;51.376;7.148;2022-10-13T03:10:21;10.30;99.90
10278;DHT22;5184;51.376;7.148;2022-10-13T03:12:47;10.30;99.90
10278;DHT22;5184;51.376;7.148;2022-10-13T03:15:14;10.30;99.70
10278;DHT22;5184;51.376;7.148;2022-10-13T03:17:40;10.30;95.20
10278;DHT22;5184;51.376;7.148;2022-10-13T03:20:08;10.30;62.30
10278;DHT22;5184;51.376;7.148;2022-10-13T03:22:36;10.30;62.80
10278;DHT22;5184;51.376;7.148;2022-10-13T03:25:02;10.30;63.30
10278;DHT22;5184;51.376;7.148;2022-10-13T03:27:30;10.40;36.70
10278;DHT22;5184;51.376;7.148;2022-10-13T03:29:57;10.40;80.10
10278;DHT22;5184;51.376;7.148;2022-10-13T03:32:24;10.40;80.80
10278;DHT22;5184;51.376;7.148;2022-10-13T03:34:50;10.40;32.80
10278;DHT22;5184;51.376;7.148;2022-10-13T03:37:17;10.50;1.00
10278;DHT22;5184;51.376;7.148;2022-10-13T03:39:44;10.50;1.00
10278;DHT22;5184;51.376;7.148;2022-10-13T03:42:12;10.60;1.00
10278;DHT22;5184;51.376;7.148;2022-10-13T03:44:38;11.30;1.00
10278;DHT22;5184;51.376;7.148;2022-10-13T03:47:05;10.60;1.00
10278;DHT22;5184;51.376;7.148;2022-10-13T03:49:31;10.60;1.00
10278;DHT22;5184;51.376;7.148;2022-10-13T03:51:58;10.60;1.00
10278;DHT22;5184;51.376;7.148;2022-10-13T03:54:25;10.60;1.00
10278;DHT22;5184;51.376;7.148;2022-10-13T03:56:52;10.60;1.00
10278;DHT22;5184;51.376;7.148;2022-10-13T03:59:19;10.60;1.00
10278;DHT22;5184;51.376;7.148;2022-10-13T04:01:46;10.60;1.00
10278;DHT22;5184;51.376;7.148;2022-10-13T04:04:13;10.60;1.00
10278;DHT22;5184;51.376;7.148;2022-10-13T04:06:39;10.60;1.00
10278;DHT22;5184;51.376;7.148;2022-10-13T04:09:06;10.60;1.00
10278;DHT22;5184;51.376;7.148;2022-10-13T04:11:32;10.60;1.00
10278;DHT22;5184;51.376;7.148;2022-10-13T04:14:00;10.60;1.00
10278;DHT22;5184;51.376;7.148;2022-10-13T04:16:27;10.60;1.00
10278;DHT22;5184;51.376;7.148;2022-10-13T04:18:57;10.60;1.00
10278;DHT22;5184;51.376;7.148;2022-10-13T04:21:23;10.60;1.00
10278;DHT22;5184;51.376;7.148;2022-10-13T04:23:50;10.60;1.00
10278;DHT22;5184;51.376;7.148;2022-10-13T04:26:18;10.50;1.00
10278;DHT22;5184;51.376;7.148;2022-10-13T04:28:45;10.60;1.00
10278;DHT22;5184;51.376;7.148;2022-10-13T04:31:11;10.60;1.00
10278;DHT22;5184;51.376;7.148;2022-10-13T04:33:38;10.60;1.00
10278;DHT22;5184;51.376;7.148;2022-10-13T04:36:05;10.60;1.00
10278;DHT22;5184;51.376;7.148;2022-10-13T04:38:31;10.60;1.00
10278;DHT22;5184;51.376;7.148;2022-10-13T04:41:01;10.60;1.00
10278;DHT22;5184;51.376;7.148;2022-10-13T04:43:26;10.60;1.00
10278;DHT22;5184;51.376;7.148;2022-10-13T04:45:58;10.60;1.00
10278;DHT22;5184;51.376;7.148;2022-10-13T04:48:20;10.50;1.00
10278;DHT22;5184;51.376;7.148;2022-10-13T04:50:47;10.60;1.00
10278;DHT22;5184;51.376;7.148;2022-10-13T04:53:13;10.60;1.00
10278;DHT22;5184;51.376;7.148;2022-10-13T04:55:40;10.60;1.00
10278;DHT22;5184;51.376;7.148;2022-10-13T04:58:06;10.60;1.00
10278;DHT22;5184;51.376;7.148;2022-10-13T05:00:34;10.60;1.00
10278;DHT22;5184;51.376;7.148;2022-10-13T05:03:00;10.60;1.00
10278;DHT22;5184;51.376;7.148;2022-10-13T05:05:27;10.60;1.00
10278;DHT22;5184;51.376;7.148;2022-10-13T05:07:53;10.60;1.00
10278;DHT22;5184;51.376;7.148;2022-10-13T05:10:20;10.60;1.00
10278;DHT22;5184;51.376;7.148;2022-10-13T05:12:47;9.70;1.00
10278;DHT22;5184;51.376;7.148;2022-10-13T05:15:14;10.70;1.00
10278;DHT22;5184;51.376;7.148;2022-10-13T05:17:41;10.70;1.00
10278;DHT22;5184;51.376;7.148;2022-10-13T05:20:08;10.60;1.00
10278;DHT22;5184;51.376;7.148;2022-10-13T05:22:35;10.70;1.00
10278;DHT22;5184;51.376;7.148;2022-10-13T05:25:03;10.60;1.00
10278;DHT22;5184;51.376;7.148;2022-10-13T05:27:30;10.60;1.00
10278;DHT22;5184;51.376;7.148;2022-10-13T05:29:57;10.70;1.00
10278;DHT22;5184;51.376;7.148;2022-10-13T05:32:25;10.70;99.90
10278;DHT22;5184;51.376;7.148;2022-10-13T05:34:51;10.60;99.90
10278;DHT22;5184;51.376;7.148;2022-10-13T05:37:18;10.70;99.90
10278;DHT22;5184;51.376;7.148;2022-10-13T05:39:45;10.70;99.90
10278;DHT22;5184;51.376;7.148;2022-10-13T05:42:12;10.70;99.90
10278;DHT22;5184;51.376;7.148;2022-10-13T05:44:39;10.70;99.90
10278;DHT22;5184;51.376;7.148;2022-10-13T05:47:06;10.70;99.90
10278;DHT22;5184;51.376;7.148;2022-10-13T05:49:32;10.70;99.90
10278;DHT22;5184;51.376;7.148;2022-10-13T05:52:00;10.60;99.90
10278;DHT22;5184;51.376;7.148;2022-10-13T05:54:34;10.60;99.90
10278;DHT22;5184;51.376;7.148;2022-10-13T05:57:02;10.50;99.90
10278;DHT22;5184;51.376;7.148;2022-10-13T05:59:28;10.60;99.90
10278;DHT22;5184;51.376;7.148;2022-10-13T06:01:55;10.70;99.90
10278;DHT22;5184;51.376;7.148;2022-10-13T06:04:24;10.70;99.90
10278;DHT22;5184;51.376;7.148;2022-10-13T06:06:49;10.70;99.90
10278;DHT22;5184;51.376;7.148;2022-10-13T06:09:16;10.70;99.90
10278;DHT22;5184;51.376;7.148;2022-10-13T06:11:42;9.80;99.90
10278;DHT22;5184;51.376;7.148;2022-10-13T06:14:10;10.70;98.10
10278;DHT22;5184;51.376;7.148;2022-10-13T06:16:36;10.60;99.90
10278;DHT22;5184;51.376;7.148;2022-10-13T06:19:04;10.60;93.10
10278;DHT22;5184;51.376;7.148;2022-10-13T06:21:33;10.70;42.80
10278;DHT22;5184;51.376;7.148;2022-10-13T06:23:58;10.70;45.20
10278;DHT22;5184;51.376;7.148;2022-10-13T06:26:24;10.70;1.00
10278;DHT22;5184;51.376;7.148;2022-10-13T06:28:51;10.70;40.20
10278;DHT22;5184;51.376;7.148;2022-10-13T06:31:18;10.60;99.90
10278;DHT22;5184;51.376;7.148;2022-10-13T06:33:46;10.70;99.90
10278;DHT22;5184;51.376;7.148;2022-10-13T06:36:13;10.70;90.00
10278;DHT22;5184;51.376;7.148;2022-10-13T06:38:40;10.70;89.90
10278;DHT22;5184;51.376;7.148;2022-10-13T06:41:06;10.70;1.00
10278;DHT22;5184;51.376;7.148;2022-10-13T06:43:33;10.70;1.00
10278;DHT22;5184;51.376;7.148;2022-10-13T06:45:59;10.70;1.00
10278;DHT22;5184;51.376;7.148;2022-10-13T06:48:26;10.70;1.00
10278;DHT22;5184;51.376;7.148;2022-10-13T06:50:53;10.70;1.00
10278;DHT22;5184;51.376;7.148;2022-10-13T06:53:21;10.70;1.00
10278;DHT22;5184;51.376;7.148;2022-10-13T06:55:47;10.70;1.00
10278;DHT22;5184;51.376;7.148;2022-10-13T06:58:14;10.70;1.00
10278;DHT22;5184;51.376;7.148;2022-10-13T07:00:41;10.70;1.00
10278;DHT22;5184;51.376;7.148;2022-10-13T07:03:09;10.80;99.90
10278;DHT22;5184;51.376;7.148;2022-10-13T07:05:36;10.90;99.90
10278;DHT22;5184;51.376;7.148;2022-10-13T07:08:03;10.90;99.90
10278;DHT22;5184;51.376;7.148;2022-10-13T07:10:30;11.00;1.00
10278;DHT22;5184;51.376;7.148;2022-10-13T07:12:57;10.90;1.00
10278;DHT22;5184;51.376;7.148;2022-10-13T07:15:24;11.00;1.00
10278;DHT22;5184;51.376;7.148;2022-10-13T07:17:51;11.00;1.00
10278;DHT22;5184;51.376;7.148;2022-10-13T07:20:17;11.00;1.00
10278;DHT22;5184;51.376;7.148;2022-10-13T07:22:43;11.10;1.00
10278;DHT22;5184;51.376;7.148;2022-10-13T07:25:11;11.20;99.90
10278;DHT22;5184;51.376;7.148;2022-10-13T07:27:37;11.20;99.90
10278;DHT22;5184;51.376;7.148;2022-10-13T07:30:05;11.20;1.00
10278;DHT22;5184;51.376;7.148;2022-10-13T07:32:31;11.80;99.90
10278;DHT22;5184;51.376;7.148;2022-10-13T07:34:58;11.40;1.00
10278;DHT22;5184;51.376;7.148;2022-10-13T07:37:25;11.40;1.00
10278;DHT22;5184;51.376;7.148;2022-10-13T07:39:52;11.60;99.90
10278;DHT22;5184;51.376;7.148;2022-10-13T07:42:19;11.70;1.00
10278;DHT22;5184;51.376;7.148;2022-10-13T07:44:46;11.70;1.00
10278;DHT22;5184;51.376;7.148;2022-10-13T07:47:13;11.80;1.00
10278;DHT22;5184;51.376;7.148;2022-10-13T07:49:39;11.80;99.90
10278;DHT22;5184;51.376;7.148;2022-10-13T07:52:06;11.90;1.00
10278;DHT22;5184;51.376;7.148;2022-10-13T07:54:32;12.00;1.00
10278;DHT22;5184;51.376;7.148;2022-10-13T07:57:00;12.20;1.00
10278;DHT22;5184;51.376;7.148;2022-10-13T07:59:27;12.30;99.90
10278;DHT22;5184;51.376;7.148;2022-10-13T08:01:54;12.30;99.90
10278;DHT22;5184;51.376;7.148;2022-10-13T08:04:20;12.40;1.00
10278;DHT22;5184;51.376;7.148;2022-10-13T08:06:47;12.60;99.90
10278;DHT22;5184;51.376;7.148;2022-10-13T08:09:13;12.70;99.90
10278;DHT22;5184;51.376;7.148;2022-10-13T08:11:40;12.80;1.00
10278;DHT22;5184;51.376;7.148;2022-10-13T08:14:08;13.00;1.00
10278;DHT22;5184;51.376;7.148;2022-10-13T08:16:35;13.00;99.90
10278;DHT22;5184;51.376;7.148;2022-10-13T08:19:01;13.00;99.90
10278;DHT22;5184;51.376;7.148;2022-10-13T08:21:28;13.10;99.90
10278;DHT22;5184;51.376;7.148;2022-10-13T08:23:55;13.20;35.30
10278;DHT22;5184;51.376;7.148;2022-10-13T08:26:25;13.40;1.00
10278;DHT22;5184;51.376;7.148;2022-10-13T08:28:51;13.50;1.00
10278;DHT22;5184;51.376;7.148;2022-10-13T08:31:18;13.60;99.90
10278;DHT22;5184;51.376;7.148;2022-10-13T08:33:45;13.60;99.90
10278;DHT22;5184;51.376;7.148;2022-10-13T08:36:14;13.80;1.00
10278;DHT22;5184;51.376;7.148;2022-10-13T08:38:40;13.80;1.00
10278;DHT22;5184;51.376;7.148;2022-10-13T08:41:15;14.00;1.00
10278;DHT22;5184;51.376;7.148;2022-10-13T08:43:40;14.10;1.00
10278;DHT22;5184;51.376;7.148;2022-10-13T08:46:07;14.10;1.00
10278;DHT22;5184;51.376;7.148;2022-10-13T08:48:34;14.20;1.00
10278;DHT22;5184;51.376;7.148;2022-10-13T08:51:01;14.20;1.00
10278;DHT22;5184;51.376;7.148;2022-10-13T08:53:28;14.30;99.90
10278;DHT22;5184;51.376;7.148;2022-10-13T08:55:55;14.30;1.00
10278;DHT22;5184;51.376;7.148;2022-10-13T08:58:24;14.30;99.90
10278;DHT22;5184;51.376;7.148;2022-10-13T09:00:53;14.30;99.90
10278;DHT22;5184;51.376;7.148;2022-10-13T09:03:23;14.30;99.90
10278;DHT22;5184;51.376;7.148;2022-10-13T09:06:08;14.30;99.90
10278;DHT22;5184;51.376;7.148;2022-10-13T09:08:36;14.30;99.90
10278;DHT22;5184;51.376;7.148;2022-10-13T09:10:57;14.30;99.90
10278;DHT22;5184;51.376;7.148;2022-10-13T09:13:24;14.40;99.90
10278;DHT22;5184;51.376;7.148;2022-10-13T09:15:51;14.40;99.90
10278;DHT22;5184;51.376;7.148;2022-10-13T09:18:20;14.50;99.90
10278;DHT22;5184;51.376;7.148;2022-10-13T09:20:45;14.50;99.90
10278;DHT22;5184;51.376;7.148;2022-10-13T09:23:21;14.50;99.90
10278;DHT22;5184;51.376;7.148;2022-10-13T09:25:49;14.50;99.90
10278;DHT22;5184;51.376;7.148;2022-10-13T09:28:23;14.40;99.90
10278;DHT22;5184;51.376;7.148;2022-10-13T09:31:12;14.50;99.90
10278;DHT22;5184;51.376;7.148;2022-10-13T09:33:34;14.60;99.90
10278;DHT22;5184;51.376;7.148;2022-10-13T09:36:09;14.60;99.90
10278;DHT22;5184;51.376;7.148;2022-10-13T09:38:38;14.60;99.90
10278;DHT22;5184;51.376;7.148;2022-10-13T09:41:11;14.60;99.90
10278;DHT22;5184;51.376;7.148;2022-10-13T09:43:59;14.60;99.90
10278;DHT22;5184;51.376;7.148;2022-10-13T09:49:20;14.60;99.90
10278;DHT22;5184;51.376;7.148;2022-10-13T09:51:40;14.70;90.90
10278;DHT22;5184;51.376;7.148;2022-10-13T09:54:21;14.70;82.80
10278;DHT22;5184;51.376;7.148;2022-10-13T09:56:40;14.80;1.00
10278;DHT22;5184;51.376;7.148;2022-10-13T09:59:10;14.70;1.00
10278;DHT22;5184;51.376;7.148;2022-10-13T10:01:34;14.80;1.00
10278;DHT22;5184;51.376;7.148;2022-10-13T10:04:03;14.90;1.00
10278;DHT22;5184;51.376;7.148;2022-10-13T10:06:29;14.90;1.00
10278;DHT22;5184;51.376;7.148;2022-10-13T10:09:02;15.00;1.00
10278;DHT22;5184;51.376;7.148;2022-10-13T10:11:28;15.00;1.00
10278;DHT22;5184;51.376;7.148;2022-10-13T10:13:54;15.00;1.00
10278;DHT22;5184;51.376;7.148;2022-10-13T10:16:26;15.10;1.00
10278;DHT22;5184;51.376;7.148;2022-10-13T10:18:55;15.10;1.00
10278;DHT22;5184;51.376;7.148;2022-10-13T10:21:42;15.10;1.00
10278;DHT22;5184;51.376;7.148;2022-10-13T10:26:51;15.30;1.00
10278;DHT22;5184;51.376;7.148;2022-10-13T10:29:28;15.30;99.90
10278;DHT22;5184;51.376;7.148;2022-10-13T10:32:02;15.30;99.90
10278;DHT22;5184;51.376;7.148;2022-10-13T10:34:31;15.20;1.00
10278;DHT22;5184;51.376;7.148;2022-10-13T10:37:16;15.20;1.00
10278;DHT22;5184;51.376;7.148;2022-10-13T10:39:47;15.30;1.00
10278;DHT22;5184;51.376;7.148;2022-10-13T10:42:24;15.30;1.00
10278;DHT22;5184;51.376;7.148;2022-10-13T10:44:46;15.40;1.00
10278;DHT22;5184;51.376;7.148;2022-10-13T10:47:20;15.50;1.00
10278;DHT22;5184;51.376;7.148;2022-10-13T10:49:44;15.50;99.90
10278;DHT22;5184;51.376;7.148;2022-10-13T10:52:15;15.50;99.90
10278;DHT22;5184;51.376;7.148;2022-10-13T10:54:41;15.60;99.90
10278;DHT22;5184;51.376;7.148;2022-10-13T10:57:15;15.60;99.90
10278;DHT22;5184;51.376;7.148;2022-10-13T11:02:54;15.70;99.90
10278;DHT22;5184;51.376;7.148;2022-10-13T11:05:18;15.70;99.90
10278;DHT22;5184;51.376;7.148;2022-10-13T11:07:53;15.70;99.90
10278;DHT22;5184;51.376;7.148;2022-10-13T11:10:18;15.80;99.90
10278;DHT22;5184;51.376;7.148;2022-10-13T11:12:47;15.80;99.90
10278;DHT22;5184;51.376;7.148;2022-10-13T11:15:13;15.80;99.90
10278;DHT22;5184;51.376;7.148;2022-10-13T11:17:39;15.90;99.90
10278;DHT22;5184;51.376;7.148;2022-10-13T11:20:48;16.00;94.80
10278;DHT22;5184;51.376;7.148;2022-10-13T11:23:25;16.10;1.00
10278;DHT22;5184;51.376;7.148;2022-10-13T11:25:45;16.20;16.00
10278;DHT22;5184;51.376;7.148;2022-10-13T11:31:23;16.20;1.00
10278;DHT22;5184;51.376;7.148;2022-10-13T11:33:52;16.30;1.00
10278;DHT22;5184;51.376;7.148;2022-10-13T11:39:05;16.50;1.00
10278;DHT22;5184;51.376;7.148;2022-10-13T11:41:29;16.50;1.00
10278;DHT22;5184;51.376;7.148;2022-10-13T11:43:57;16.50;1.00
10278;DHT22;5184;51.376;7.148;2022-10-13T11:46:26;16.50;1.00
10278;DHT22;5184;51.376;7.148;2022-10-13T11:52:16;16.40;1.00
10278;DHT22;5184;51.376;7.148;2022-10-13T11:54:30;16.30;1.00
10278;DHT22;5184;51.376;7.148;2022-10-13T11:56:54;16.20;86.00
10278;DHT22;5184;51.376;7.148;2022-10-13T11:59:29;16.20;99.90
10278;DHT22;5184;51.376;7.148;2022-10-13T12:01:57;16.10;1.00
10278;DHT22;5184;51.376;7.148;2022-10-13T12:04:24;16.00;9.60
10278;DHT22;5184;51.376;7.148;2022-10-13T12:06:54;15.90;99.90
10278;DHT22;5184;51.376;7.148;2022-10-13T12:09:20;15.00;99.90
10278;DHT22;5184;51.376;7.148;2022-10-13T12:11:54;15.90;99.90
10278;DHT22;5184;51.376;7.148;2022-10-13T12:14:20;15.80;99.90
10278;DHT22;5184;51.376;7.148;2022-10-13T12:16:52;15.80;99.90
10278;DHT22;5184;51.376;7.148;2022-10-13T12:19:19;15.80;99.90
10278;DHT22;5184;51.376;7.148;2022-10-13T12:21:51;15.70;1.00
10278;DHT22;5184;51.376;7.148;2022-10-13T12:24:17;15.70;1.00
10278;DHT22;5184;51.376;7.148;2022-10-13T12:26:44;15.70;1.00
10278;DHT22;5184;51.376;7.148;2022-10-13T12:29:12;15.60;1.00
10278;DHT22;5184;51.376;7.148;2022-10-13T12:31:40;15.60;1.00
10278;DHT22;5184;51.376;7.148;2022-10-13T12:34:23;15.60;99.90
10278;DHT22;5184;51.376;7.148;2022-10-13T12:37:24;15.50;99.90
10278;DHT22;5184;51.376;7.148;2022-10-13T12:39:33;15.30;99.90
10278;DHT22;5184;51.376;7.148;2022-10-13T12:42:01;15.30;99.90
10278;DHT22;5184;51.376;7.148;2022-10-13T12:44:29;15.30;1.00
10278;DHT22;5184;51.376;7.148;2022-10-13T12:46:56;15.30;1.00
10278;DHT22;5184;51.376;7.148;2022-10-13T12:49:26;15.30;84.40
10278;DHT22;5184;51.376;7.148;2022-10-13T12:52:11;15.20;99.90
10278;DHT22;5184;51.376;7.148;2022-10-13T12:54:37;15.10;99.90
10278;DHT22;5184;51.376;7.148;2022-10-13T12:57:05;15.10;1.00
10278;DHT22;5184;51.376;7.148;2022-10-13T12:59:30;15.00;99.90
10278;DHT22;5184;51.376;7.148;2022-10-13T13:01:58;14.90;1.00
10278;DHT22;5184;51.376;7.148;2022-10-13T13:04:27;14.80;99.90
10278;DHT22;5184;51.376;7.148;2022-10-13T13:06:55;14.80;1.00
10278;DHT22;5184;51.376;7.148;2022-10-13T13:09:23;14.70;1.00
10278;DHT22;5184;51.376;7.148;2022-10-13T13:12:21;14.70;99.90
10278;DHT22;5184;51.376;7.148;2022-10-13T13:14:35;14.70;99.90
10278;DHT22;5184;51.376;7.148;2022-10-13T13:17:09;14.70;99.90
10278;DHT22;5184;51.376;7.148;2022-10-13T13:19:33;14.70;99.90
10278;DHT22;5184;51.376;7.148;2022-10-13T13:22:01;14.60;99.90
10278;DHT22;5184;51.376;7.148;2022-10-13T13:24:26;14.60;99.90
10278;DHT22;5184;51.376;7.148;2022-10-13T13:26:54;14.70;99.90
10278;DHT22;5184;51.376;7.148;2022-10-13T13:29:21;14.80;99.90
10278;DHT22;5184;51.376;7.148;2022-10-13T13:31:48;14.70;99.90
10278;DHT22;5184;51.376;7.148;2022-10-13T13:34:14;14.80;99.90
10278;DHT22;5184;51.376;7.148;2022-10-13T13:36:41;14.80;1.00
10278;DHT22;5184;51.376;7.148;2022-10-13T13:39:12;14.80;99.90
10278;DHT22;5184;51.376;7.148;2022-10-13T13:41:36;14.70;99.90
10278;DHT22;5184;51.376;7.148;2022-10-13T13:44:02;14.70;99.90
10278;DHT22;5184;51.376;7.148;2022-10-13T13:46:29;14.60;99.90
10278;DHT22;5184;51.376;7.148;2022-10-13T13:48:56;14.60;64.70
10278;DHT22;5184;51.376;7.148;2022-10-13T13:51:23;14.60;99.90
10278;DHT22;5184;51.376;7.148;2022-10-13T13:53:50;14.60;99.90
10278;DHT22;5184;51.376;7.148;2022-10-13T13:56:18;14.70;99.90
10278;DHT22;5184;51.376;7.148;2022-10-13T13:58:44;14.70;99.90
10278;DHT22;5184;51.376;7.148;2022-10-13T14:01:11;14.70;99.90
10278;DHT22;5184;51.376;7.148;2022-10-13T14:03:37;14.70;99.90
10278;DHT22;5184;51.376;7.148;2022-10-13T14:06:05;14.70;99.90
10278;DHT22;5184;51.376;7.148;2022-10-13T14:08:32;14.70;99.90
10278;DHT22;5184;51.376;7.148;2022-10-13T14:10:58;14.60;99.90
10278;DHT22;5184;51.376;7.148;2022-10-13T14:13:25;14.60;28.30
10278;DHT22;5184;51.376;7.148;2022-10-13T14:15:55;14.60;99.90
10278;DHT22;5184;51.376;7.148;2022-10-13T14:18:21;14.60;99.90
10278;DHT22;5184;51.376;7.148;2022-10-13T14:20:48;14.60;99.90
10278;DHT22;5184;51.376;7.148;2022-10-13T14:23:15;14.60;1.00
10278;DHT22;5184;51.376;7.148;2022-10-13T14:25:43;14.60;1.00
10278;DHT22;5184;51.376;7.148;2022-10-13T14:28:10;14.60;99.90
10278;DHT22;5184;51.376;7.148;2022-10-13T14:30:38;14.50;99.90
10278;DHT22;5184;51.376;7.148;2022-10-13T14:33:04;14.60;99.90
10278;DHT22;5184;51.376;7.148;2022-10-13T14:35:31;14.60;1.00
10278;DHT22;5184;51.376;7.148;2022-10-13T14:37:57;14.60;1.00
10278;DHT22;5184;51.376;7.148;2022-10-13T14:40:24;14.60;1.00
10278;DHT22;5184;51.376;7.148;2022-10-13T14:42:50;14.60;99.90
10278;DHT22;5184;51.376;7.148;2022-10-13T14:45:18;14.60;1.00
10278;DHT22;5184;51.376;7.148;2022-10-13T14:47:45;14.60;99.90
10278;DHT22;5184;51.376;7.148;2022-10-13T14:50:12;14.60;99.90
10278;DHT22;5184;51.376;7.148;2022-10-13T14:52:38;14.50;99.90
10278;DHT22;5184;51.376;7.148;2022-10-13T14:55:05;14.50;1.00
10278;DHT22;5184;51.376;7.148;2022-10-13T14:57:32;14.40;55.70
10278;DHT22;5184;51.376;7.148;2022-10-13T15:00:00;14.40;99.90
10278;DHT22;5184;51.376;7.148;2022-10-13T15:02:26;14.40;99.90
10278;DHT22;5184;51.376;7.148;2022-10-13T15:04:53;15.50;1.00
10278;DHT22;5184;51.376;7.148;2022-10-13T15:07:20;14.30;99.90
10278;DHT22;5184;51.376;7.148;2022-10-13T15:09:46;14.30;26.80
10278;DHT22;5184;51.376;7.148;2022-10-13T15:12:14;15.80;99.90
10278;DHT22;5184;51.376;7.148;2022-10-13T15:14:40;14.20;99.90
10278;DHT22;5184;51.376;7.148;2022-10-13T15:17:07;14.30;99.90
10278;DHT22;5184;51.376;7.148;2022-10-13T15:19:33;14.20;99.90
10278;DHT22;5184;51.376;7.148;2022-10-13T15:22:01;14.20;1.00
10278;DHT22;5184;51.376;7.148;2022-10-13T15:24:28;14.30;99.90
10278;DHT22;5184;51.376;7.148;2022-10-13T15:26:55;14.20;99.90
10278;DHT22;5184;51.376;7.148;2022-10-13T15:29:21;14.30;99.90
10278;DHT22;5184;51.376;7.148;2022-10-13T15:31:48;14.20;1.00
10278;DHT22;5184;51.376;7.148;2022-10-13T15:34:15;14.20;1.00
10278;DHT22;5184;51.376;7.148;2022-10-13T15:36:43;14.20;1.00
10278;DHT22;5184;51.376;7.148;2022-10-13T15:39:10;14.10;99.90
10278;DHT22;5184;51.376;7.148;2022-10-13T15:41:37;14.10;99.90
10278;DHT22;5184;51.376;7.148;2022-10-13T15:44:03;14.10;99.90
10278;DHT22;5184;51.376;7.148;2022-10-13T15:46:30;14.10;66.40
10278;DHT22;5184;51.376;7.148;2022-10-13T15:48:57;14.20;99.90
10278;DHT22;5184;51.376;7.148;2022-10-13T15:51:24;14.20;99.00
10278;DHT22;5184;51.376;7.148;2022-10-13T15:53:51;14.20;99.00
10278;DHT22;5184;51.376;7.148;2022-10-13T15:56:18;13.10;99.90
10278;DHT22;5184;51.376;7.148;2022-10-13T15:58:44;14.10;99.90
10278;DHT22;5184;51.376;7.148;2022-10-13T16:01:12;14.00;99.90
10278;DHT22;5184;51.376;7.148;2022-10-13T16:03:39;14.00;1.00
10278;DHT22;5184;51.376;7.148;2022-10-13T16:06:06;14.00;1.00
10278;DHT22;5184;51.376;7.148;2022-10-13T16:08:35;13.90;1.00
10278;DHT22;5184;51.376;7.148;2022-10-13T16:11:05;13.90;1.00
10278;DHT22;5184;51.376;7.148;2022-10-13T16:13:28;13.90;1.00
10278;DHT22;5184;51.376;7.148;2022-10-13T16:15:59;13.90;1.00
10278;DHT22;5184;51.376;7.148;2022-10-13T16:18:30;13.90;1.00